This is the latest recevied weather packets stored in our database for station/object LKLN. If no packets are shown the sender has not sent any weather packets the latest 10 day(s).
| Time | Temp. | Humidity | Pressure | Rain* | Wind** | Luminosity | Snow |
|---|---|---|---|---|---|---|---|
| 1777188484 | 8.89° C | 53% | 1024 hPa | - | - | - | - |
| 1777186684 | 7.78° C | 56% | 1023 hPa | - | - | - | - |
| 1777184885 | 7.22° C | 61% | 1023 hPa | - | - | - | - |
| 1777183085 | 7.22° C | 61% | 1023 hPa | - | - | - | - |
| 1777181284 | 6.11° C | 65% | 1022 hPa | - | - | - | - |
| 1777179484 | 6.11° C | 70% | 1022 hPa | - | - | - | - |
| 1777177684 | 6.11° C | 70% | 1021 hPa | - | - | - | - |
| 1777175886 | 7.22° C | 65% | 1020 hPa | - | - | - | - |
| 1777174084 | 5° C | 65% | 1020 hPa | - | - | - | - |
| 1777172284 | 6.11° C | 60% | 1019 hPa | - | - | - | - |
| 1777170484 | 7.78° C | 49% | 1019 hPa | - | - | - | - |
| 1777168692 | 7.78° C | 49% | 1018 hPa | - | - | - | - |
| 1777166883 | 7.78° C | 49% | 1018 hPa | - | - | - | - |
| 1777165085 | 7.78° C | 45% | 1017 hPa | - | - | - | - |
| 1777163284 | 7.78° C | 45% | 1017 hPa | - | - | - | - |
| 1777161485 | 7.78° C | 45% | 1017 hPa | - | - | - | - |
| 1777159684 | 8.89° C | 42% | 1017 hPa | - | - | - | - |
| 1777157885 | 10° C | 39% | 1017 hPa | - | - | - | - |
| 1777156084 | 10° C | 39% | 1016 hPa | - | - | - | - |
| 1777154284 | 10° C | 37% | 1016 hPa | - | - | - | - |
| 1777152484 | 12.22° C | 32% | 1016 hPa | - | - | - | - |
| 1777150685 | 13.89° C | 28% | 1016 hPa | - | - | - | - |
| 1777148885 | 12.78° C | 28% | 1016 hPa | - | - | - | - |
| 1777147084 | 13.89° C | 26% | 1016 hPa | - | - | - | - |
| 1777145283 | 15° C | 24% | 1015 hPa | - | - | - | - |
* Rain since midnight (hover to see other rain measurements)
** Current wind speed in m/s (hover to see current wind gust speed)